createdAt,value
2019-02-14T00:01:21.983Z,88.30
2019-02-14T00:03:51.682Z,88.90
2019-02-14T00:06:21.274Z,88.00
2019-02-14T00:08:51.055Z,88.30
2019-02-14T00:11:20.669Z,89.10
2019-02-14T00:13:50.438Z,89.10
2019-02-14T00:16:20.146Z,89.10
2019-02-14T00:18:49.972Z,89.20
2019-02-14T00:21:19.706Z,90.00
2019-02-14T00:23:49.486Z,90.00
2019-02-14T00:26:19.058Z,90.20
2019-02-14T00:28:48.635Z,90.20
2019-02-14T00:31:18.326Z,90.00
2019-02-14T00:33:47.903Z,90.00
2019-02-14T00:36:17.621Z,89.70
2019-02-14T00:38:47.231Z,89.70
2019-02-14T00:41:16.912Z,89.90
2019-02-14T00:43:46.597Z,90.00
2019-02-14T00:46:16.264Z,90.10
2019-02-14T00:48:45.848Z,90.20
2019-02-14T00:51:15.554Z,90.20
2019-02-14T00:53:45.112Z,90.20
2019-02-14T00:56:14.856Z,90.40
2019-02-14T00:58:44.517Z,90.40
2019-02-14T01:01:14.300Z,90.40
2019-02-14T01:03:47.992Z,90.30
2019-02-14T01:06:17.596Z,90.20
2019-02-14T01:08:47.335Z,90.10
2019-02-14T01:11:17.981Z,90.20
2019-02-14T01:13:55.665Z,90.10
2019-02-14T01:16:27.267Z,90.00
2019-02-14T01:18:57.005Z,89.90
2019-02-14T01:21:26.575Z,90.00
2019-02-14T01:23:56.371Z,90.00
2019-02-14T01:26:25.938Z,90.00
2019-02-14T01:28:56.659Z,90.10
2019-02-14T01:31:26.254Z,90.20
2019-02-14T01:33:55.967Z,90.10
2019-02-14T01:36:25.646Z,90.20
2019-02-14T01:38:55.340Z,90.20
2019-02-14T01:41:25.895Z,90.30
2019-02-14T01:43:55.524Z,90.20
2019-02-14T01:46:25.295Z,90.30
2019-02-14T01:48:54.839Z,90.20
2019-02-14T01:51:24.640Z,90.30
2019-02-14T01:53:54.262Z,90.60
2019-02-14T01:56:24.041Z,90.70
2019-02-14T01:58:53.617Z,90.80
2019-02-14T02:01:23.295Z,90.90
2019-02-14T02:03:52.872Z,90.80
2019-02-14T02:06:22.520Z,91.00
2019-02-14T02:08:52.098Z,91.10
2019-02-14T02:11:23.624Z,91.10
2019-02-14T02:13:53.075Z,91.20
2019-02-14T02:16:22.650Z,91.10
2019-02-14T02:18:52.322Z,91.20
2019-02-14T02:21:21.861Z,91.00
2019-02-14T02:23:51.465Z,91.10
2019-02-14T02:26:20.980Z,91.00
2019-02-14T02:28:50.655Z,91.10
2019-02-14T02:31:20.206Z,91.10
2019-02-14T02:33:49.874Z,91.10
2019-02-14T02:36:24.095Z,91.10
2019-02-14T02:38:53.816Z,91.10
2019-02-14T02:41:24.058Z,91.00
2019-02-14T02:43:54.992Z,90.90
2019-02-14T02:46:24.547Z,90.90
2019-02-14T02:48:54.290Z,91.00
2019-02-14T02:51:24.081Z,90.90
2019-02-14T02:53:53.671Z,90.90
2019-02-14T02:56:23.443Z,90.90
2019-02-14T02:58:53.948Z,91.00
2019-02-14T03:01:27.683Z,91.00
2019-02-14T03:03:57.291Z,90.90
2019-02-14T03:06:27.004Z,91.00
2019-02-14T03:08:57.676Z,91.00
2019-02-14T03:11:27.395Z,91.10
2019-02-14T03:13:57.014Z,91.10
2019-02-14T03:16:26.783Z,91.00
2019-02-14T03:18:56.398Z,91.10
2019-02-14T03:21:27.110Z,91.40
2019-02-14T03:26:33.124Z,91.60
2019-02-14T03:29:02.811Z,91.60
2019-02-14T03:31:54.644Z,91.40
2019-02-14T03:34:25.463Z,91.70
2019-02-14T03:36:55.104Z,91.60
2019-02-14T03:39:24.688Z,91.70
2019-02-14T03:41:54.426Z,91.70
2019-02-14T03:44:24.656Z,91.60
2019-02-14T03:46:54.547Z,91.40
2019-02-14T03:49:24.362Z,91.50
2019-02-14T03:51:54.109Z,91.40
2019-02-14T03:54:23.950Z,91.40
2019-02-14T03:56:53.817Z,91.40
2019-02-14T03:59:23.719Z,91.40
2019-02-14T04:01:53.336Z,91.30
2019-02-14T04:04:23.154Z,91.40
2019-02-14T04:06:52.871Z,91.40
2019-02-14T04:09:23.092Z,91.40
2019-02-14T04:11:52.716Z,91.50
2019-02-14T04:14:23.550Z,91.80
2019-02-14T04:16:53.222Z,91.50
2019-02-14T04:19:22.948Z,91.50
2019-02-14T04:21:52.755Z,91.80
2019-02-14T04:24:22.703Z,91.80
2019-02-14T04:26:52.921Z,91.70
2019-02-14T04:29:22.708Z,91.70
2019-02-14T04:31:53.538Z,91.60
2019-02-14T04:34:23.334Z,91.60
2019-02-14T04:36:53.182Z,91.40
2019-02-14T04:39:23.262Z,91.40
2019-02-14T04:41:54.404Z,91.60
2019-02-14T04:44:24.219Z,91.50
2019-02-14T04:46:55.103Z,91.40
2019-02-14T04:49:24.899Z,91.40
2019-02-14T04:51:54.722Z,91.30
2019-02-14T04:54:24.446Z,91.30
2019-02-14T04:56:54.127Z,91.10
2019-02-14T04:59:23.949Z,91.20
2019-02-14T05:01:54.704Z,91.40
2019-02-14T05:04:24.476Z,91.80
2019-02-14T05:06:54.149Z,91.60
2019-02-14T05:09:25.123Z,91.50
2019-02-14T05:11:55.830Z,91.60
2019-02-14T05:14:25.746Z,91.60
2019-02-14T05:16:55.479Z,91.60
2019-02-14T05:19:25.066Z,91.30
2019-02-14T05:22:19.306Z,91.50
2019-02-14T05:24:49.088Z,91.20
2019-02-14T05:27:19.860Z,91.10
2019-02-14T05:29:49.535Z,91.40
2019-02-14T05:32:19.268Z,91.50
2019-02-14T05:34:48.959Z,91.40
2019-02-14T05:37:18.807Z,91.50
2019-02-14T05:39:49.633Z,91.70
2019-02-14T05:42:20.088Z,91.50
2019-02-14T05:44:50.354Z,91.60
2019-02-14T05:47:20.248Z,91.50
2019-02-14T05:49:50.128Z,91.50
2019-02-14T05:52:21.025Z,91.50
2019-02-14T05:54:51.099Z,91.40
2019-02-14T05:57:20.784Z,91.40
2019-02-14T05:59:50.365Z,91.50
2019-02-14T06:02:20.080Z,91.80
2019-02-14T06:04:49.781Z,91.70
2019-02-14T06:07:19.543Z,91.50
2019-02-14T06:09:49.451Z,91.50
2019-02-14T06:12:19.353Z,91.30
2019-02-14T06:14:49.284Z,91.60
2019-02-14T06:18:33.238Z,91.40
2019-02-14T06:21:03.046Z,91.50
2019-02-14T06:23:33.719Z,91.30
2019-02-14T06:26:03.513Z,91.30
2019-02-14T06:28:33.370Z,91.20
2019-02-14T06:31:03.125Z,91.30
2019-02-14T06:33:32.939Z,91.10
2019-02-14T06:36:02.787Z,91.20
2019-02-14T06:38:32.667Z,91.10
2019-02-14T06:41:03.642Z,91.00
2019-02-14T06:43:34.248Z,91.10
2019-02-14T06:46:04.373Z,91.00
2019-02-14T06:48:34.405Z,91.10
2019-02-14T06:51:04.411Z,90.80
2019-02-14T06:53:34.863Z,90.70
2019-02-14T06:56:04.858Z,90.80
2019-02-14T06:58:35.355Z,90.90
2019-02-14T07:01:05.314Z,90.90
2019-02-14T07:03:35.852Z,90.80
2019-02-14T07:06:05.536Z,90.90
2019-02-14T07:08:35.447Z,90.70
2019-02-14T07:11:05.166Z,90.60
2019-02-14T07:13:34.876Z,90.30
2019-02-14T07:16:04.634Z,90.20
2019-02-14T07:18:35.182Z,90.20
2019-02-14T07:21:05.037Z,90.00
2019-02-14T07:23:34.905Z,90.10
2019-02-14T07:26:05.723Z,89.70
2019-02-14T07:28:35.564Z,89.10
2019-02-14T07:31:05.362Z,88.90
2019-02-14T07:33:35.218Z,88.10
2019-02-14T07:36:05.285Z,87.40
2019-02-14T07:38:35.166Z,86.70
2019-02-14T07:41:05.184Z,85.90
2019-02-14T07:43:35.122Z,84.90
2019-02-14T07:46:05.012Z,84.00
2019-02-14T07:48:34.715Z,84.00
2019-02-14T07:51:04.524Z,84.20
2019-02-14T07:53:36.080Z,83.90
2019-02-14T07:56:05.896Z,83.90
2019-02-14T07:58:36.418Z,83.90
2019-02-14T08:01:06.479Z,84.00
2019-02-14T08:03:36.423Z,84.50
2019-02-14T08:06:08.255Z,82.50
2019-02-14T08:08:38.311Z,81.10
2019-02-14T08:11:08.287Z,80.80
2019-02-14T08:13:38.685Z,76.10
2019-02-14T08:16:10.216Z,73.10
2019-02-14T08:18:40.151Z,69.10
2019-02-14T08:21:09.963Z,67.70
2019-02-14T08:23:40.533Z,65.20
2019-02-14T08:26:11.496Z,63.90
2019-02-14T08:28:41.249Z,63.40
2019-02-14T08:31:10.883Z,63.20
2019-02-14T08:33:40.667Z,63.40
2019-02-14T08:36:11.636Z,63.80
2019-02-14T08:38:43.244Z,63.70
2019-02-14T08:41:13.109Z,63.20
2019-02-14T08:43:43.361Z,61.60
2019-02-14T08:46:14.070Z,60.00
2019-02-14T08:48:43.820Z,57.10
2019-02-14T08:51:13.384Z,55.50
2019-02-14T08:53:44.184Z,54.60
2019-02-14T08:56:14.098Z,53.20
2019-02-14T08:58:44.508Z,51.90
2019-02-14T09:01:14.626Z,50.80
2019-02-14T09:03:44.214Z,50.30
2019-02-14T09:06:14.142Z,48.20
2019-02-14T09:08:43.899Z,48.10
2019-02-14T09:11:13.865Z,48.00
2019-02-14T09:13:43.902Z,48.10
2019-02-14T09:16:14.157Z,48.90
2019-02-14T09:18:43.956Z,49.10
2019-02-14T09:21:13.648Z,48.20
2019-02-14T09:23:43.440Z,47.50
2019-02-14T09:26:13.464Z,47.40
2019-02-14T09:28:44.003Z,46.40
2019-02-14T09:31:13.910Z,46.10
2019-02-14T09:33:44.001Z,46.00
2019-02-14T09:36:13.782Z,45.80
2019-02-14T09:38:43.595Z,44.10
2019-02-14T09:41:13.922Z,44.50
2019-02-14T09:43:43.861Z,42.80
2019-02-14T09:46:14.181Z,41.50
2019-02-14T09:48:43.951Z,43.10
2019-02-14T09:51:13.714Z,42.90
2019-02-14T09:53:43.471Z,42.60
2019-02-14T09:56:13.313Z,42.30
2019-02-14T09:58:42.972Z,42.70
2019-02-14T10:01:12.965Z,42.30
2019-02-14T10:03:43.298Z,42.70
2019-02-14T10:06:13.176Z,43.10
2019-02-14T10:08:42.995Z,41.50
2019-02-14T10:11:13.183Z,40.50
2019-02-14T10:13:44.035Z,39.70
2019-02-14T10:16:13.891Z,39.10
2019-02-14T10:18:43.675Z,39.60
2019-02-14T10:21:14.592Z,38.30
2019-02-14T10:23:44.489Z,37.10
2019-02-14T10:26:15.531Z,36.50
2019-02-14T10:28:45.654Z,35.20
2019-02-14T10:31:15.517Z,35.40
2019-02-14T10:33:45.471Z,33.40
2019-02-14T10:36:15.149Z,33.80
2019-02-14T10:38:45.038Z,33.80
2019-02-14T10:41:14.789Z,33.10
2019-02-14T10:43:48.761Z,32.30
2019-02-14T10:46:17.796Z,32.20
2019-02-14T10:48:49.827Z,31.20
2019-02-14T10:51:19.576Z,30.80
2019-02-14T10:53:49.703Z,30.60
2019-02-14T10:56:19.587Z,29.20
2019-02-14T10:58:51.780Z,30.00
2019-02-14T11:01:21.761Z,29.40
2019-02-14T11:03:51.677Z,29.50
2019-02-14T11:06:21.676Z,29.20
2019-02-14T11:08:51.486Z,27.90
2019-02-14T11:11:21.322Z,27.50
2019-02-14T11:13:51.416Z,28.60
2019-02-14T11:16:21.221Z,27.70
2019-02-14T11:18:51.211Z,27.20
2019-02-14T11:21:21.068Z,26.20
2019-02-14T11:23:50.707Z,25.90
2019-02-14T11:26:20.490Z,25.70
2019-02-14T11:28:50.328Z,25.80
2019-02-14T11:31:20.340Z,25.40
2019-02-14T11:33:50.451Z,24.50
2019-02-14T11:36:20.442Z,23.20
2019-02-14T11:38:51.166Z,23.60
2019-02-14T11:41:20.951Z,24.60
2019-02-14T11:43:51.316Z,26.40
2019-02-14T11:46:21.496Z,27.40
2019-02-14T11:48:51.518Z,28.80
2019-02-14T11:51:21.542Z,29.10
2019-02-14T11:53:51.267Z,29.60
2019-02-14T11:56:22.056Z,32.10
2019-02-14T11:58:52.200Z,32.90
2019-02-14T12:01:22.180Z,29.50
2019-02-14T12:03:52.862Z,30.30
2019-02-14T12:06:22.593Z,30.50
2019-02-14T12:09:00.379Z,31.20
2019-02-14T12:11:29.514Z,32.10
2019-02-14T12:13:59.372Z,32.60
2019-02-14T12:16:29.016Z,32.20
2019-02-14T12:18:59.225Z,33.10
2019-02-14T12:21:28.851Z,33.10
2019-02-14T12:23:59.484Z,33.50
2019-02-14T12:26:29.138Z,32.00
2019-02-14T12:29:00.329Z,33.00
2019-02-14T12:31:29.997Z,33.60
2019-02-14T12:34:00.028Z,33.10
2019-02-14T12:36:29.899Z,32.50
2019-02-14T12:41:31.105Z,31.70
2019-02-14T12:44:00.781Z,31.60
2019-02-14T12:46:31.199Z,31.50
2019-02-14T12:49:01.412Z,30.00
2019-02-14T12:51:33.481Z,32.20
2019-02-14T12:54:03.455Z,32.80
2019-02-14T12:56:33.802Z,32.40
2019-02-14T12:59:04.307Z,33.60
2019-02-14T13:01:34.202Z,34.70
2019-02-14T13:04:05.035Z,34.40
2019-02-14T13:06:34.784Z,35.00
2019-02-14T13:09:06.991Z,34.30
2019-02-14T13:11:36.628Z,35.20
2019-02-14T13:14:06.859Z,34.80
2019-02-14T13:16:36.551Z,34.30
2019-02-14T13:19:06.847Z,36.30
2019-02-14T13:21:36.723Z,36.00
2019-02-14T13:24:07.091Z,35.60
2019-02-14T13:26:36.631Z,36.10
2019-02-14T13:29:06.956Z,34.90
2019-02-14T13:31:35.916Z,35.40
2019-02-14T13:34:05.912Z,36.10
2019-02-14T13:36:35.716Z,35.90
2019-02-14T13:39:07.479Z,35.90
2019-02-14T13:41:37.187Z,35.10
2019-02-14T13:44:06.999Z,35.10
2019-02-14T13:46:37.056Z,34.40
2019-02-14T13:49:07.054Z,35.60
2019-02-14T13:51:36.669Z,35.10
2019-02-14T13:54:06.661Z,34.90
2019-02-14T13:56:36.577Z,34.50
2019-02-14T13:59:07.446Z,35.10
2019-02-14T14:01:37.454Z,35.00
2019-02-14T14:04:07.165Z,34.80
2019-02-14T14:06:37.335Z,33.40
2019-02-14T14:09:09.907Z,33.70
2019-02-14T14:11:39.718Z,34.00
2019-02-14T14:14:09.713Z,32.20
2019-02-14T14:16:39.597Z,32.70
2019-02-14T14:19:09.241Z,33.30
2019-02-14T14:21:39.084Z,31.70
2019-02-14T14:24:09.658Z,31.60
2019-02-14T14:26:39.504Z,32.90
2019-02-14T14:29:09.091Z,32.40
2019-02-14T14:31:39.835Z,33.50
2019-02-14T14:34:09.644Z,34.50
2019-02-14T14:36:39.458Z,34.80
2019-02-14T14:39:09.171Z,33.50
2019-02-14T14:41:39.010Z,34.70
2019-02-14T14:44:14.423Z,34.80
2019-02-14T14:46:48.847Z,34.80
2019-02-14T14:49:19.854Z,35.60
2019-02-14T14:51:49.554Z,35.90
2019-02-14T14:54:19.831Z,35.90
2019-02-14T14:56:50.492Z,34.00
2019-02-14T14:59:21.179Z,32.60
2019-02-14T15:01:50.797Z,31.60
2019-02-14T15:04:20.572Z,31.90
2019-02-14T15:06:50.410Z,31.60
2019-02-14T15:09:20.245Z,31.20
2019-02-14T15:11:49.926Z,32.20
2019-02-14T15:14:20.476Z,32.10
2019-02-14T15:16:50.866Z,33.10
2019-02-14T15:19:20.595Z,33.70
2019-02-14T15:21:50.419Z,32.30
2019-02-14T15:24:20.806Z,32.80
2019-02-14T15:26:50.610Z,32.30
2019-02-14T15:29:22.727Z,31.60
2019-02-14T15:31:52.798Z,32.50
2019-02-14T15:34:22.459Z,32.30
2019-02-14T15:36:53.289Z,32.90
2019-02-14T15:39:23.089Z,32.80
2019-02-14T15:41:52.898Z,30.70
2019-02-14T15:44:23.699Z,30.50
2019-02-14T15:46:54.103Z,33.60
2019-02-14T15:49:25.450Z,35.70
2019-02-14T15:51:55.323Z,36.90
2019-02-14T15:54:24.999Z,37.70
2019-02-14T15:56:56.551Z,37.90
2019-02-14T15:59:28.849Z,38.70
2019-02-14T16:01:58.862Z,38.00
2019-02-14T16:04:29.412Z,37.10
2019-02-14T16:07:00.419Z,36.30
2019-02-14T16:09:32.004Z,36.80
2019-02-14T16:12:01.727Z,37.70
2019-02-14T16:14:31.942Z,37.50
2019-02-14T16:17:01.684Z,38.50
2019-02-14T16:19:34.495Z,39.10
2019-02-14T16:22:05.485Z,39.40
2019-02-14T16:24:35.277Z,39.30
2019-02-14T16:27:05.098Z,39.00
2019-02-14T16:29:35.863Z,40.60
2019-02-14T16:32:15.027Z,40.30
2019-02-14T16:34:44.890Z,41.50
2019-02-14T16:37:14.933Z,40.90
2019-02-14T16:42:20.424Z,45.50
2019-02-14T16:44:50.469Z,48.70
2019-02-14T16:47:20.495Z,50.60
2019-02-14T16:49:50.414Z,51.40
2019-02-14T16:52:20.215Z,52.00
2019-02-14T16:54:50.287Z,52.30
2019-02-14T16:57:20.055Z,52.30
2019-02-14T16:59:49.936Z,52.10
2019-02-14T17:02:20.390Z,52.50
2019-02-14T17:04:50.141Z,52.30
2019-02-14T17:07:19.983Z,53.00
2019-02-14T17:09:50.023Z,52.80
2019-02-14T17:12:19.777Z,53.40
2019-02-14T17:14:49.561Z,53.20
2019-02-14T17:17:27.738Z,54.00
2019-02-14T17:19:51.056Z,55.00
2019-02-14T17:22:20.975Z,56.00
2019-02-14T17:24:51.496Z,56.40
2019-02-14T17:27:21.789Z,57.70
2019-02-14T17:29:51.586Z,58.80
2019-02-14T17:32:21.527Z,60.90
2019-02-14T17:34:51.569Z,62.90
2019-02-14T17:37:21.730Z,64.40
2019-02-14T17:39:52.903Z,65.80
2019-02-14T17:42:22.823Z,66.60
2019-02-14T17:44:54.864Z,67.50
2019-02-14T17:47:24.974Z,68.70
2019-02-14T17:49:54.900Z,69.90
2019-02-14T17:52:24.895Z,70.00
2019-02-14T17:54:55.456Z,71.00
2019-02-14T17:57:27.325Z,70.60
2019-02-14T17:59:57.123Z,70.00
2019-02-14T18:02:28.712Z,69.80
2019-02-14T18:04:58.509Z,69.70
2019-02-14T18:07:28.203Z,69.20
2019-02-14T18:10:00.842Z,69.70
2019-02-14T18:12:30.634Z,68.90
2019-02-14T18:15:00.422Z,69.60
2019-02-14T18:17:31.420Z,70.10
2019-02-14T18:20:02.113Z,69.50
2019-02-14T18:22:31.995Z,70.00
2019-02-14T18:25:01.902Z,69.60
2019-02-14T18:27:31.608Z,70.20
2019-02-14T18:30:01.738Z,70.70
2019-02-14T18:32:33.641Z,70.40
2019-02-14T18:35:03.425Z,69.50
2019-02-14T18:37:33.327Z,69.70
2019-02-14T18:40:03.644Z,69.20
2019-02-14T18:42:33.503Z,68.50
2019-02-14T18:45:05.325Z,67.20
2019-02-14T18:47:39.766Z,66.80
2019-02-14T18:50:07.499Z,67.10
2019-02-14T18:52:37.460Z,66.90
2019-02-14T18:55:09.033Z,65.90
2019-02-14T18:57:38.854Z,66.70
2019-02-14T19:00:12.016Z,67.50
2019-02-14T19:02:42.780Z,67.20
2019-02-14T19:05:12.505Z,67.40
2019-02-14T19:07:44.104Z,67.70
2019-02-14T19:10:15.067Z,67.10
2019-02-14T19:12:45.281Z,68.00
2019-02-14T19:15:15.454Z,68.60
2019-02-14T19:17:45.391Z,68.80
2019-02-14T19:20:15.126Z,69.60
2019-02-14T19:22:44.902Z,70.40
2019-02-14T19:25:15.324Z,69.30
2019-02-14T19:27:45.221Z,69.30
2019-02-14T19:30:15.394Z,70.30
2019-02-14T19:32:45.347Z,70.20
2019-02-14T19:35:22.793Z,70.50
2019-02-14T19:38:13.687Z,70.90
2019-02-14T19:41:04.494Z,71.30
2019-02-14T19:43:34.502Z,71.40
2019-02-14T19:46:04.688Z,72.10
2019-02-14T19:48:35.148Z,72.40
2019-02-14T19:51:05.212Z,72.90
2019-02-14T19:53:36.411Z,73.40
2019-02-14T19:58:48.602Z,74.20
2019-02-14T20:01:18.644Z,74.50
2019-02-14T20:03:51.095Z,74.60
2019-02-14T20:06:21.291Z,75.10
2019-02-14T20:08:51.231Z,75.30
2019-02-14T20:11:44.704Z,75.20
2019-02-14T20:14:16.331Z,75.70
2019-02-14T20:16:47.085Z,76.00
2019-02-14T20:19:16.967Z,76.30
2019-02-14T20:21:46.609Z,76.20
2019-02-14T20:24:16.919Z,75.90
2019-02-14T20:26:49.229Z,76.10
2019-02-14T20:29:19.431Z,76.70
2019-02-14T20:31:49.046Z,76.70
2019-02-14T20:34:19.288Z,76.90
2019-02-14T20:36:48.953Z,77.90
2019-02-14T20:39:22.487Z,78.30
2019-02-14T20:42:36.066Z,78.30
2019-02-14T20:45:15.310Z,78.90
2019-02-14T20:48:00.553Z,79.10
2019-02-14T20:51:12.735Z,79.20
2019-02-14T20:54:00.806Z,79.50
2019-02-14T20:56:30.646Z,79.90
2019-02-14T20:59:00.574Z,80.60
2019-02-14T21:01:30.214Z,79.80
2019-02-14T21:04:02.898Z,79.40
2019-02-14T21:06:32.853Z,79.10
2019-02-14T21:09:43.828Z,79.20
2019-02-14T21:12:27.328Z,79.50
2019-02-14T21:14:57.175Z,79.50
2019-02-14T21:17:27.324Z,79.50
2019-02-14T21:19:57.189Z,79.20
2019-02-14T21:22:27.090Z,79.60
2019-02-14T21:24:56.942Z,79.50
2019-02-14T21:27:26.694Z,79.80
2019-02-14T21:29:56.671Z,79.80
2019-02-14T21:32:26.547Z,80.50
2019-02-14T21:34:57.281Z,81.10
2019-02-14T21:37:27.216Z,81.60
2019-02-14T21:39:57.097Z,81.80
2019-02-14T21:42:29.316Z,81.90
2019-02-14T21:44:58.274Z,81.80
2019-02-14T21:47:27.944Z,80.60
2019-02-14T21:49:57.899Z,80.60
2019-02-14T21:52:28.589Z,80.00
2019-02-14T21:55:17.266Z,79.90
2019-02-14T21:57:48.420Z,79.90
2019-02-14T22:00:19.301Z,80.50
2019-02-14T22:02:49.900Z,80.40
2019-02-14T22:05:24.995Z,80.20
2019-02-14T22:07:54.114Z,80.60
2019-02-14T22:10:24.236Z,81.00
2019-02-14T22:12:53.925Z,81.10
2019-02-14T22:15:23.780Z,81.30
2019-02-14T22:17:53.331Z,81.50
2019-02-14T22:20:23.468Z,81.80
2019-02-14T22:22:53.295Z,81.50
2019-02-14T22:25:22.972Z,81.70
2019-02-14T22:27:52.982Z,81.40
2019-02-14T22:30:22.931Z,81.00
2019-02-14T22:32:52.500Z,80.80
2019-02-14T22:35:22.314Z,81.00
2019-02-14T22:37:51.957Z,81.20
2019-02-14T22:40:21.713Z,81.20
2019-02-14T22:42:51.485Z,80.90
2019-02-14T22:45:21.442Z,80.60
2019-02-14T22:47:50.979Z,80.80
2019-02-14T22:50:20.838Z,80.70
2019-02-14T22:52:50.475Z,81.40
2019-02-14T22:55:20.211Z,80.90
2019-02-14T22:57:49.813Z,81.40
2019-02-14T23:00:30.077Z,81.60
2019-02-14T23:02:59.955Z,82.40
2019-02-14T23:05:29.475Z,81.50
2019-02-14T23:07:59.097Z,81.50
2019-02-14T23:10:28.902Z,81.40
2019-02-14T23:12:58.654Z,81.60
2019-02-14T23:15:31.913Z,81.50
2019-02-14T23:18:01.676Z,82.00
2019-02-14T23:20:32.578Z,82.20
2019-02-14T23:25:57.947Z,82.40
2019-02-14T23:28:34.623Z,82.80
2019-02-14T23:31:19.477Z,83.10
2019-02-14T23:34:08.023Z,83.20
2019-02-14T23:36:37.643Z,83.30
2019-02-14T23:39:07.955Z,83.30
2019-02-14T23:41:37.552Z,83.40
2019-02-14T23:44:07.299Z,83.70
2019-02-14T23:46:37.108Z,84.00
2019-02-14T23:49:06.899Z,84.10
2019-02-14T23:51:36.484Z,84.50
2019-02-14T23:54:06.161Z,84.50
2019-02-14T23:56:35.879Z,84.40
2019-02-14T23:59:06.033Z,84.10
